Terminal Aerodrome Forecast
Issued by NWS

Home | Current Version | Previous Version | Text Only | Print | Product List | Glossary On
Versions: 1 2 3 4 5 6 7 8 9 10 11 12 13 14 15 16 17 18
784
FTUS43 KGRB 231734
TAFAUW
TAF
KAUW 231734Z 2318/2418 19011G17KT P6SM FEW045 SCT250
     FM240000 17007KT P6SM BKN200
     FM240700 16007KT 6SM BR BKN014 OVC022
      TEMPO 2408/2412 3SM SHRA OVC007
     FM241200 17007KT 4SM -SHRA BR OVC007
     FM241600 22008KT 6SM BR BKN009=

USA.gov is the U.S. government's official web portal to all federal, state and local government web resources and services.